Time;durP1;ratioP1;P1;durP2;ratioP2;P2;SDS_P1;SDS_P2;PMS_P1;PMS_P2;Temp;Humidity;BMP_temperature;BMP_pressure;BME280_temperature;BME280_humidity;BME280_pressure;Samples;Min_cycle;Max_cycle;Signal;HPM_P1;HPM_P2
2022/03/05 10:05:18;;;;;;;11.13;7.90;;;9.00;64.50;;;;;;5059503;28;20620;-75
2022/03/05 10:07:58;;;;;;;11.67;8.40;;;9.20;65.00;;;;;;5064716;28;20563;-75
2022/03/05 10:10:23;;;;;;;12.13;6.83;;;9.80;64.50;;;;;;5065062;28;20438;-75
2022/03/05 10:12:49;;;;;;;13.60;7.63;;;10.30;64.00;;;;;;5063712;28;20347;-76
2022/03/05 10:15:21;;;;;;;11.37;8.40;;;10.80;63.20;;;;;;5060172;28;20235;-76
2022/03/05 10:17:52;;;;;;;12.77;8.77;;;11.40;62.10;;;;;;5061978;28;20652;-76
2022/03/05 10:20:21;;;;;;;12.50;8.43;;;11.60;60.80;;;;;;5067706;28;20191;-75
2022/03/05 10:23:06;;;;;;;11.23;8.90;;;11.40;61.10;;;;;;5064360;28;20179;-75
2022/03/05 10:25:43;;;;;;;12.15;8.70;;;11.00;61.10;;;;;;5066836;28;20190;-76
2022/03/05 10:28:22;;;;;;;11.05;7.68;;;10.50;62.30;;;;;;5058303;28;21471;-75
2022/03/05 10:30:51;;;;;;;15.32;9.38;;;10.20;62.90;;;;;;5062050;28;20578;-75
2022/03/05 10:33:28;;;;;;;12.73;8.98;;;10.10;63.50;;;;;;5067101;28;20186;-75
2022/03/05 10:35:55;;;;;;;11.98;7.13;;;9.80;63.50;;;;;;5060715;28;20193;-75
2022/03/05 10:38:22;;;;;;;10.80;8.67;;;9.60;64.20;;;;;;5063814;28;20237;-76
2022/03/05 10:40:56;;;;;;;10.18;8.15;;;9.40;64.60;;;;;;5056598;28;20552;-78
2022/03/05 10:43:23;;;;;;;14.30;8.60;;;9.10;65.00;;;;;;5062690;28;20218;-77
2022/03/05 10:45:53;;;;;;;12.90;7.93;;;8.80;65.60;;;;;;5062719;28;20189;-77
2022/03/05 10:48:33;;;;;;;10.87;8.13;;;8.40;66.30;;;;;;5066449;28;20187;-74
2022/03/05 10:51:13;;;;;;;12.43;8.53;;;8.20;67.00;;;;;;5055314;28;20288;-76
2022/03/05 10:53:47;;;;;;;13.97;8.67;;;7.80;67.90;;;;;;5067307;28;20178;-76
2022/03/05 10:56:20;;;;;;;12.27;8.37;;;7.40;68.90;;;;;;5062074;28;20190;-74
2022/03/05 10:59:05;;;;;;;10.80;8.23;;;7.20;69.80;;;;;;5063245;28;20244;-75
2022/03/05 11:01:33;;;;;;;13.13;7.73;;;7.20;70.10;;;;;;5057869;28;20182;-74
2022/03/05 11:04:00;;;;;;;10.23;7.60;;;7.20;70.00;;;;;;5060237;28;20720;-75
2022/03/05 11:06:27;;;;;;;13.33;8.57;;;7.20;70.00;;;;;;5059266;28;20249;-75
2022/03/05 11:08:53;;;;;;;12.93;8.17;;;7.20;70.40;;;;;;5059881;28;20190;-75
2022/03/05 11:11:20;;;;;;;11.60;8.10;;;7.20;70.60;;;;;;5062036;28;20212;-75
2022/03/05 11:13:47;;;;;;;11.47;8.50;;;7.00;71.00;;;;;;5061193;28;20187;-74
2022/03/05 11:16:13;;;;;;;10.23;7.40;;;6.70;71.80;;;;;;5055598;28;20215;-76
2022/03/05 11:18:42;;;;;;;12.80;8.47;;;6.30;73.20;;;;;;5053095;28;20175;-76
2022/03/05 11:21:09;;;;;;;10.73;7.67;;;6.30;73.50;;;;;;5052631;28;20179;-75
2022/03/05 11:23:37;;;;;;;11.93;7.13;;;6.30;73.90;;;;;;5048486;28;20211;-75
2022/03/05 11:26:07;;;;;;;11.63;7.37;;;6.50;73.80;;;;;;5051164;28;20573;-75
2022/03/05 11:28:46;;;;;;;8.90;6.83;;;6.60;73.60;;;;;;5045066;28;20192;-75
2022/03/05 11:31:20;;;;;;;8.40;6.93;;;6.70;74.30;;;;;;5047735;28;20195;-75
2022/03/05 11:33:47;;;;;;;13.43;7.67;;;6.60;73.90;;;;;;5049072;28;20179;-75
2022/03/05 11:36:36;;;;;;;12.30;8.03;;;6.50;74.70;;;;;;5045963;28;20187;-74
2022/03/05 11:39:15;;;;;;;10.30;7.67;;;6.50;75.00;;;;;;5051610;28;20191;-78
2022/03/05 11:42:05;;;;;;;9.83;7.37;;;6.30;75.00;;;;;;5052380;28;20261;-78
2022/03/05 11:44:36;;;;;;;13.43;7.10;;;6.20;75.70;;;;;;5055304;28;20203;-75
2022/03/05 11:47:23;;;;;;;12.87;7.83;;;6.10;76.40;;;;;;5049694;28;20191;-76
2022/03/05 11:50:09;;;;;;;9.10;6.63;;;6.00;77.00;;;;;;5054188;28;20747;-75
2022/03/05 11:52:38;;;;;;;10.33;6.87;;;5.90;77.40;;;;;;5050975;28;20199;-75
2022/03/05 11:55:22;;;;;;;8.23;7.40;;;5.90;77.10;;;;;;5047085;28;20191;-71
2022/03/05 11:57:51;;;;;;;11.70;7.50;;;5.90;78.20;;;;;;5055075;28;20248;-74
2022/03/05 12:00:31;;;;;;;17.43;7.60;;;5.90;78.00;;;;;;5050501;28;20176;-74
2022/03/05 12:02:58;;;;;;;10.67;7.40;;;5.80;78.20;;;;;;5043426;28;20218;-75
2022/03/05 12:05:33;;;;;;;15.87;7.47;;;5.80;77.90;;;;;;5050343;28;20199;-75
2022/03/05 12:07:59;;;;;;;12.03;7.67;;;5.70;78.20;;;;;;5050666;28;20261;-77
2022/03/05 12:10:25;;;;;;;15.10;8.47;;;5.70;77.80;;;;;;5046414;28;20932;-73
2022/03/05 12:13:00;;;;;;;13.67;7.77;;;5.60;78.60;;;;;;5048756;28;20182;-75
2022/03/05 12:15:32;;;;;;;11.60;8.30;;;5.60;79.00;;;;;;5050076;28;20562;-75
2022/03/05 12:18:00;;;;;;;13.23;8.97;;;5.50;79.10;;;;;;5045904;28;20203;-74
2022/03/05 12:20:34;;;;;;;11.47;7.60;;;5.40;79.20;;;;;;5050290;28;20187;-74
2022/03/05 12:23:04;;;;;;;14.80;8.63;;;5.40;79.80;;;;;;5053133;28;20215;-74
2022/03/05 12:25:39;;;;;;;11.80;7.43;;;5.30;79.90;;;;;;5042242;28;20184;-73
2022/03/05 12:28:12;;;;;;;11.13;7.83;;;5.20;80.10;;;;;;5050751;28;20171;-75
2022/03/05 12:30:38;;;;;;;8.40;7.20;;;5.20;81.00;;;;;;5048594;28;20187;-74
2022/03/05 12:33:15;;;;;;;13.03;7.77;;;5.10;81.30;;;;;;5048439;28;20225;-74
2022/03/05 12:35:44;;;;;;;12.57;7.50;;;5.00;81.70;;;;;;5051133;28;20178;-74
2022/03/05 12:38:15;;;;;;;7.80;6.80;;;5.00;81.50;;;;;;5047971;28;20182;-75
2022/03/05 12:40:40;;;;;;;15.17;8.27;;;5.10;81.40;;;;;;5054801;28;20252;-76
2022/03/05 12:43:07;;;;;;;11.17;7.60;;;5.10;81.40;;;;;;5052726;28;20211;-76
2022/03/05 12:45:40;;;;;;;15.40;7.27;;;5.10;81.40;;;;;;5046034;28;20184;-76
2022/03/05 12:48:12;;;;;;;12.57;7.77;;;5.10;81.80;;;;;;5042102;28;20573;-75
2022/03/05 12:50:40;;;;;;;12.73;7.67;;;5.10;81.60;;;;;;5045339;28;20184;-75
2022/03/05 12:53:07;;;;;;;18.73;8.70;;;5.00;82.10;;;;;;5045553;28;20188;-75
2022/03/05 12:55:47;;;;;;;14.13;8.67;;;4.90;82.10;;;;;;5046838;28;20183;-74
2022/03/05 12:58:17;;;;;;;11.63;7.53;;;4.80;82.70;;;;;;5044347;28;20188;-75
2022/03/05 13:00:46;;;;;;;9.00;6.80;;;4.70;82.90;;;;;;5051565;28;20183;-75
2022/03/05 13:03:14;;;;;;;8.10;6.13;;;4.70;82.70;;;;;;5047496;28;20296;-75
2022/03/05 13:05:41;;;;;;;13.93;6.73;;;4.70;82.60;;;;;;5054078;28;20184;-75
2022/03/05 13:08:16;;;;;;;10.03;6.67;;;4.80;82.50;;;;;;5044575;28;20634;-75
2022/03/05 13:10:44;;;;;;;10.27;6.13;;;4.80;82.70;;;;;;5051902;28;20186;-75
2022/03/05 13:13:11;;;;;;;12.17;6.77;;;4.90;82.60;;;;;;5046703;28;20205;-75
2022/03/05 13:15:37;;;;;;;9.40;6.80;;;4.90;82.40;;;;;;5048662;28;20241;-75
2022/03/05 13:18:16;;;;;;;8.97;7.37;;;4.90;82.90;;;;;;5049731;28;20183;-75
2022/03/05 13:20:43;;;;;;;10.63;6.67;;;4.90;83.30;;;;;;5051298;28;20190;-75
2022/03/05 13:23:10;;;;;;;10.03;6.10;;;4.90;83.00;;;;;;5048130;28;20582;-75
2022/03/05 13:25:44;;;;;;;9.53;6.07;;;5.00;83.00;;;;;;5051435;28;20188;-75
2022/03/05 13:28:14;;;;;;;10.30;6.43;;;5.00;82.90;;;;;;5053317;28;20747;-75
2022/03/05 13:30:43;;;;;;;8.83;6.43;;;5.00;83.20;;;;;;5047948;28;20194;-75
2022/03/05 13:33:09;;;;;;;8.73;5.57;;;5.00;83.60;;;;;;5047503;28;20191;-75
2022/03/05 13:35:43;;;;;;;10.70;7.13;;;5.00;83.90;;;;;;5050750;28;20183;-75
2022/03/05 13:38:27;;;;;;;10.00;6.57;;;5.00;84.10;;;;;;5044104;28;20182;-75
2022/03/05 13:40:53;;;;;;;8.67;6.50;;;4.90;83.80;;;;;;5048126;28;20547;-75
2022/03/05 13:43:23;;;;;;;9.07;6.37;;;5.00;84.90;;;;;;5047794;28;20199;-75
2022/03/05 13:45:51;;;;;;;13.07;7.87;;;5.00;85.00;;;;;;5044722;28;20662;-75
2022/03/05 13:48:17;;;;;;;8.73;6.43;;;5.00;85.90;;;;;;5046168;28;20633;-75
2022/03/05 13:50:43;;;;;;;10.90;7.63;;;4.90;86.10;;;;;;5049775;28;20195;-75
2022/03/05 13:53:09;;;;;;;6.47;5.70;;;4.90;86.30;;;;;;5049170;28;20187;-75
2022/03/05 13:55:35;;;;;;;9.37;7.23;;;4.90;86.30;;;;;;5044307;28;20183;-74
2022/03/05 13:58:00;;;;;;;9.57;6.90;;;4.90;86.80;;;;;;5047684;28;20211;-75
2022/03/05 14:00:28;;;;;;;12.37;8.23;;;4.70;87.10;;;;;;5047440;28;20271;-75
2022/03/05 14:02:55;;;;;;;12.67;7.83;;;4.60;87.40;;;;;;5048639;28;20195;-76
2022/03/05 14:05:22;;;;;;;16.57;8.23;;;4.50;88.20;;;;;;5052245;28;20182;-75
2022/03/05 14:08:00;;;;;;;10.27;7.07;;;4.30;88.70;;;;;;5050608;28;20199;-75
2022/03/05 14:10:27;;;;;;;14.40;7.87;;;4.30;88.60;;;;;;5047014;28;20214;-75
2022/03/05 14:12:55;;;;;;;13.87;7.83;;;4.20;89.20;;;;;;5047349;28;20187;-74
2022/03/05 14:15:32;;;;;;;15.73;7.03;;;4.20;89.50;;;;;;5050617;28;20218;-76
2022/03/05 14:18:07;;;;;;;9.13;7.33;;;4.20;89.30;;;;;;5048736;28;20191;-75
2022/03/05 14:20:46;;;;;;;10.40;7.17;;;4.20;89.70;;;;;;5044940;28;20689;-74
2022/03/05 14:23:14;;;;;;;11.80;7.20;;;4.20;89.40;;;;;;5049636;28;20211;-77
2022/03/05 14:25:46;;;;;;;10.57;7.60;;;4.20;90.00;;;;;;5050599;28;20617;-74
2022/03/05 14:28:20;;;;;;;13.03;6.67;;;4.20;89.50;;;;;;5049315;28;20724;-76
2022/03/05 14:30:47;;;;;;;8.10;6.37;;;4.20;89.80;;;;;;5046625;28;20301;-76
2022/03/05 14:33:13;;;;;;;11.77;7.47;;;4.20;89.30;;;;;;5048112;28;20186;-76
2022/03/05 14:35:39;;;;;;;9.57;6.90;;;4.30;89.40;;;;;;5050091;28;20641;-75
2022/03/05 14:38:06;;;;;;;11.33;6.70;;;4.30;89.20;;;;;;5042166;28;20186;-76
2022/03/05 14:40:34;;;;;;;10.07;6.50;;;4.30;89.70;;;;;;5048294;28;20183;-75
2022/03/05 14:43:01;;;;;;;8.17;6.43;;;4.30;89.40;;;;;;5045703;28;20184;-77
2022/03/05 14:45:27;;;;;;;12.60;7.20;;;4.40;89.60;;;;;;5045252;28;20207;-78
2022/03/05 14:47:53;;;;;;;15.87;7.57;;;4.30;89.20;;;;;;5045865;28;20682;-77
2022/03/05 14:50:23;;;;;;;11.03;7.90;;;4.20;89.20;;;;;;5041151;28;20274;-79
2022/03/05 14:52:49;;;;;;;14.00;7.90;;;4.20;90.10;;;;;;5049226;28;20252;-77
2022/03/05 14:55:16;;;;;;;11.83;8.07;;;4.10;90.20;;;;;;5047450;28;20192;-76
2022/03/05 14:57:42;;;;;;;9.83;6.60;;;4.10;89.90;;;;;;5052244;28;20184;-78
2022/03/05 15:00:11;;;;;;;11.27;7.53;;;4.10;89.90;;;;;;5047956;28;20179;-76
2022/03/05 15:02:39;;;;;;;15.50;8.10;;;4.00;90.30;;;;;;5050934;28;20176;-75
2022/03/05 15:05:07;;;;;;;10.37;8.03;;;3.90;90.50;;;;;;5052240;28;20234;-78
2022/03/05 15:07:33;;;;;;;12.73;8.47;;;3.80;90.70;;;;;;5049776;28;20194;-78
2022/03/05 15:09:59;;;;;;;12.37;7.67;;;3.70;90.80;;;;;;5046679;28;20248;-77
2022/03/05 15:12:26;;;;;;;14.37;8.57;;;3.60;91.30;;;;;;5048943;28;20179;-78
2022/03/05 15:14:51;;;;;;;13.43;8.93;;;3.50;91.30;;;;;;5049619;28;20183;-75
2022/03/05 15:17:17;;;;;;;10.97;8.47;;;3.40;91.90;;;;;;5051563;28;20190;-74
2022/03/05 15:19:43;;;;;;;14.60;8.20;;;3.30;91.90;;;;;;5051640;28;20325;-78
2022/03/05 15:22:09;;;;;;;16.57;8.43;;;3.30;92.00;;;;;;5049498;28;20191;-78
2022/03/05 15:24:34;;;;;;;14.53;9.33;;;3.20;93.00;;;;;;5044573;28;20784;-77
2022/03/05 15:27:00;;;;;;;13.50;8.80;;;3.20;93.30;;;;;;5050934;28;20678;-75
2022/03/05 15:29:26;;;;;;;16.67;8.63;;;3.20;93.40;;;;;;5046689;28;20179;-75
2022/03/05 15:31:57;;;;;;;18.07;9.70;;;3.10;93.50;;;;;;5047827;28;20311;-76
2022/03/05 15:34:26;;;;;;;10.00;7.67;;;3.10;93.50;;;;;;5051617;28;20183;-74
2022/03/05 15:36:53;;;;;;;15.27;8.57;;;3.00;93.70;;;;;;5048426;28;21082;-74
2022/03/05 15:39:20;;;;;;;11.60;7.93;;;3.00;93.90;;;;;;5049566;28;20233;-74
2022/03/05 15:41:49;;;;;;;11.73;8.03;;;3.00;94.00;;;;;;5043702;28;20210;-74
2022/03/05 15:44:17;;;;;;;13.47;8.40;;;3.00;94.10;;;;;;5049993;28;20211;-74
2022/03/05 15:46:42;;;;;;;14.37;8.83;;;3.00;94.60;;;;;;5046728;28;20275;-74
2022/03/05 15:49:08;;;;;;;15.60;8.90;;;3.00;94.30;;;;;;5049970;28;20289;-77
2022/03/05 15:51:37;;;;;;;14.63;7.50;;;3.00;94.10;;;;;;5051864;28;20191;-73
2022/03/05 15:54:04;;;;;;;19.30;9.93;;;3.00;94.10;;;;;;5047789;28;20190;-74
2022/03/05 15:56:33;;;;;;;8.50;7.33;;;3.00;94.20;;;;;;5052660;28;20179;-78
2022/03/05 15:59:03;;;;;;;10.67;7.83;;;3.00;94.70;;;;;;5047241;28;20180;-77
2022/03/05 16:01:28;;;;;;;16.03;8.70;;;3.00;94.60;;;;;;5052732;28;20191;-74
2022/03/05 16:03:54;;;;;;;13.37;8.73;;;3.00;94.60;;;;;;5053815;28;20603;-74
2022/03/05 16:06:20;;;;;;;13.97;8.63;;;3.00;94.40;;;;;;5047691;28;20496;-74
2022/03/05 16:08:46;;;;;;;14.37;8.77;;;3.00;94.80;;;;;;5044402;28;20263;-74
2022/03/05 16:11:11;;;;;;;11.10;7.93;;;3.00;94.40;;;;;;5042424;28;20192;-75
2022/03/05 16:13:37;;;;;;;12.70;9.20;;;3.10;94.40;;;;;;5049342;28;20207;-75
2022/03/05 16:16:03;;;;;;;11.53;8.00;;;3.00;94.20;;;;;;5045576;28;20745;-75
2022/03/05 16:18:29;;;;;;;15.20;8.97;;;3.10;94.10;;;;;;5050050;28;20180;-75
2022/03/05 16:20:54;;;;;;;15.27;8.37;;;3.10;94.30;;;;;;5049061;28;20783;-74
2022/03/05 16:23:20;;;;;;;12.77;8.00;;;3.10;94.30;;;;;;5050300;28;20211;-73
2022/03/05 16:25:46;;;;;;;15.97;8.77;;;3.10;94.00;;;;;;5042122;28;20183;-74
2022/03/05 16:28:12;;;;;;;14.40;9.73;;;3.00;94.10;;;;;;5052953;28;20200;-74
2022/03/05 16:30:38;;;;;;;17.07;9.10;;;3.00;94.60;;;;;;5045799;28;20702;-74
2022/03/05 16:33:04;;;;;;;16.13;9.23;;;3.00;94.60;;;;;;5045168;28;20370;-74
2022/03/05 16:35:32;;;;;;;14.57;8.53;;;3.00;94.60;;;;;;5046593;28;20183;-73
2022/03/05 16:37:58;;;;;;;14.93;8.17;;;3.00;94.70;;;;;;5045828;28;20184;-73
2022/03/05 16:40:25;;;;;;;11.93;8.07;;;3.10;94.40;;;;;;5048106;28;20859;-73
2022/03/05 16:42:56;;;;;;;13.20;8.27;;;3.00;94.80;;;;;;5046546;28;20243;-75
2022/03/05 16:45:22;;;;;;;11.77;7.77;;;3.00;94.40;;;;;;5049199;28;20183;-74
2022/03/05 16:47:51;;;;;;;12.83;8.13;;;3.00;94.90;;;;;;5049610;28;20216;-74
2022/03/05 16:50:17;;;;;;;12.90;9.10;;;2.90;94.90;;;;;;5048940;28;20211;-73
2022/03/05 16:52:43;;;;;;;12.17;8.10;;;2.90;95.20;;;;;;5050189;28;20616;-75
2022/03/05 16:55:10;;;;;;;12.60;6.93;;;2.90;95.40;;;;;;5052317;28;20189;-75
2022/03/05 16:57:36;;;;;;;11.60;8.67;;;2.90;95.50;;;;;;5046995;28;20187;-74
2022/03/05 17:00:08;;;;;;;11.47;7.93;;;2.90;95.20;;;;;;5052602;28;20182;-73
2022/03/05 17:02:36;;;;;;;14.70;8.10;;;2.90;95.40;;;;;;5045748;28;20184;-73
2022/03/05 17:05:02;;;;;;;12.37;7.93;;;2.90;95.50;;;;;;5049305;28;20305;-73
2022/03/05 17:07:28;;;;;;;13.87;6.90;;;2.90;95.60;;;;;;5050597;28;20797;-74
2022/03/05 17:09:56;;;;;;;9.60;7.03;;;2.90;95.40;;;;;;5051381;28;20266;-74
2022/03/05 17:12:22;;;;;;;12.00;7.80;;;2.90;95.60;;;;;;5048241;28;20175;-74
2022/03/05 17:14:48;;;;;;;15.33;8.40;;;3.00;95.80;;;;;;5049827;28;20191;-81
2022/03/05 17:17:13;;;;;;;15.87;9.13;;;3.00;95.90;;;;;;5054630;28;20203;-76
2022/03/05 17:19:39;;;;;;;10.33;7.50;;;2.90;95.80;;;;;;5046760;28;20193;-74
2022/03/05 17:22:05;;;;;;;13.57;8.03;;;3.00;96.20;;;;;;5049052;28;20571;-75
2022/03/05 17:24:31;;;;;;;14.63;8.87;;;3.00;96.10;;;;;;5049423;28;20221;-75
2022/03/05 17:26:57;;;;;;;13.13;8.53;;;3.00;96.20;;;;;;5056363;28;20186;-74
2022/03/05 17:29:23;;;;;;;12.73;7.80;;;3.00;95.90;;;;;;5045141;28;20183;-75
2022/03/05 17:31:48;;;;;;;13.77;8.93;;;3.00;95.30;;;;;;5049918;28;20188;-74
2022/03/05 17:34:14;;;;;;;11.73;8.23;;;3.00;95.80;;;;;;5050556;28;20203;-74
2022/03/05 17:36:40;;;;;;;13.43;9.00;;;3.00;95.90;;;;;;5046518;28;20203;-75
2022/03/05 17:39:06;;;;;;;17.40;8.83;;;2.90;96.10;;;;;;5049098;28;20194;-74
2022/03/05 17:41:32;;;;;;;18.10;9.97;;;2.90;96.20;;;;;;5049694;28;20233;-75
2022/03/05 17:43:57;;;;;;;13.67;8.90;;;2.90;96.30;;;;;;5045817;28;20219;-75
2022/03/05 17:46:25;;;;;;;15.17;8.80;;;2.80;96.40;;;;;;5049777;28;20179;-74
2022/03/05 17:48:51;;;;;;;14.93;9.00;;;2.80;96.50;;;;;;5052959;28;21020;-74
2022/03/05 17:51:17;;;;;;;14.37;9.97;;;2.70;96.70;;;;;;5048404;28;20262;-75
2022/03/05 17:53:43;;;;;;;12.60;8.30;;;2.60;97.00;;;;;;5049359;28;20572;-75
2022/03/05 17:56:09;;;;;;;14.73;8.50;;;2.50;97.30;;;;;;5047917;28;20779;-75
2022/03/05 17:58:34;;;;;;;16.90;9.03;;;2.50;97.70;;;;;;5046817;28;20654;-74
2022/03/05 18:01:00;;;;;;;14.67;8.63;;;2.40;98.00;;;;;;5050288;28;20182;-74
2022/03/05 18:03:27;;;;;;;12.00;8.13;;;2.40;98.10;;;;;;5041118;28;20203;-73
2022/03/05 18:05:53;;;;;;;12.10;8.17;;;2.40;98.50;;;;;;5042864;28;20600;-73
2022/03/05 18:08:21;;;;;;;12.47;8.20;;;2.40;98.50;;;;;;5050132;28;20746;-74
2022/03/05 18:10:47;;;;;;;14.30;8.37;;;2.40;98.50;;;;;;5050053;28;20584;-72
2022/03/05 18:13:13;;;;;;;13.80;8.47;;;2.40;98.50;;;;;;5048573;28;20180;-79
2022/03/05 18:15:39;;;;;;;13.90;8.20;;;2.40;98.40;;;;;;5051913;28;20248;-78
2022/03/05 18:18:06;;;;;;;13.67;7.57;;;2.40;98.50;;;;;;5047481;28;20188;-75
2022/03/05 18:20:33;;;;;;;13.10;8.23;;;2.40;98.50;;;;;;5057450;28;20182;-80
2022/03/05 18:22:58;;;;;;;12.13;7.33;;;2.40;98.50;;;;;;5042365;28;20222;-79
2022/03/05 18:25:24;;;;;;;14.53;8.40;;;2.50;98.40;;;;;;5056345;28;20217;-80
2022/03/05 18:27:51;;;;;;;16.70;8.90;;;2.50;98.40;;;;;;5047220;28;20192;-76
2022/03/05 18:30:17;;;;;;;10.90;7.70;;;2.50;98.30;;;;;;5024677;28;20229;-75
2022/03/05 18:32:43;;;;;;;9.70;7.60;;;2.40;98.50;;;;;;4999055;28;20182;-75
2022/03/05 18:35:09;;;;;;;15.60;8.33;;;2.50;98.50;;;;;;4998137;28;20195;-74
2022/03/05 18:37:35;;;;;;;9.67;7.53;;;2.50;98.50;;;;;;4998699;28;20184;-74
2022/03/05 18:40:01;;;;;;;15.60;8.53;;;2.50;98.30;;;;;;4997858;28;20197;-75
2022/03/05 18:42:27;;;;;;;13.47;8.60;;;2.50;98.30;;;;;;4997942;28;20192;-75
2022/03/05 18:44:53;;;;;;;11.40;8.00;;;2.50;98.50;;;;;;4997974;28;20221;-74
2022/03/05 18:47:19;;;;;;;14.80;9.20;;;2.40;98.50;;;;;;4998829;28;20182;-74
2022/03/05 18:49:45;;;;;;;15.80;8.10;;;2.40;98.50;;;;;;4997438;28;20750;-74
2022/03/05 18:52:10;;;;;;;16.50;8.23;;;2.40;98.50;;;;;;4998283;28;20220;-74
2022/03/05 18:54:36;;;;;;;13.17;8.53;;;2.40;98.50;;;;;;4995900;28;20731;-74
2022/03/05 18:57:02;;;;;;;14.20;8.03;;;2.40;98.50;;;;;;4998537;28;20442;-75
2022/03/05 18:59:28;;;;;;;13.00;8.00;;;2.40;98.50;;;;;;4999631;28;20189;-73
2022/03/05 19:01:54;;;;;;;11.87;7.73;;;2.40;98.50;;;;;;4999169;28;20560;-73
2022/03/05 19:04:19;;;;;;;11.33;7.87;;;2.40;98.50;;;;;;4996663;28;20225;-73
2022/03/05 19:06:45;;;;;;;10.50;7.73;;;2.40;98.50;;;;;;5000623;28;20243;-74
2022/03/05 19:09:11;;;;;;;16.57;7.80;;;2.50;98.50;;;;;;5000070;28;20185;-77
2022/03/05 19:11:38;;;;;;;12.43;8.50;;;2.40;98.50;;;;;;4998747;28;20204;-75
2022/03/05 19:14:04;;;;;;;11.87;8.03;;;2.50;98.50;;;;;;4991038;28;20647;-76
2022/03/05 19:16:29;;;;;;;11.37;7.10;;;2.40;98.50;;;;;;4994552;28;20323;-76
2022/03/05 19:18:55;;;;;;;13.27;7.90;;;2.40;98.50;;;;;;4993010;28;20692;-77
2022/03/05 19:21:23;;;;;;;8.20;7.00;;;2.40;98.50;;;;;;4995971;28;20183;-76
2022/03/05 19:23:49;;;;;;;9.00;6.80;;;2.40;98.50;;;;;;4995105;28;20316;-76
2022/03/05 19:26:14;;;;;;;10.30;7.33;;;2.40;98.50;;;;;;4994567;28;20189;-76
2022/03/05 19:28:40;;;;;;;9.97;6.57;;;2.50;98.50;;;;;;4994356;28;20679;-77
2022/03/05 19:31:06;;;;;;;9.37;7.00;;;2.50;98.50;;;;;;4997812;28;20185;-77
2022/03/05 19:33:32;;;;;;;12.30;7.10;;;2.50;98.50;;;;;;4992948;28;20279;-77
2022/03/05 19:35:58;;;;;;;9.97;6.63;;;2.50;98.50;;;;;;4992725;28;20263;-77
2022/03/05 19:38:23;;;;;;;7.70;5.80;;;2.60;98.40;;;;;;4994061;28;20272;-76
2022/03/05 19:40:49;;;;;;;11.00;7.27;;;2.60;98.50;;;;;;4992321;28;20344;-76
2022/03/05 19:43:17;;;;;;;11.23;7.50;;;2.60;98.50;;;;;;4993619;28;20251;-79
2022/03/05 19:45:44;;;;;;;8.07;6.50;;;2.60;98.50;;;;;;4997075;28;20651;-77
2022/03/05 19:48:11;;;;;;;7.40;6.10;;;2.60;98.50;;;;;;4994260;28;20720;-75
2022/03/05 19:50:37;;;;;;;12.70;7.30;;;2.60;98.50;;;;;;4998961;28;20181;-78
2022/03/05 19:53:04;;;;;;;10.17;7.37;;;2.60;98.50;;;;;;4993923;28;20185;-76
2022/03/05 19:55:30;;;;;;;13.00;8.73;;;2.70;98.50;;;;;;4995926;28;20254;-77
2022/03/05 19:57:55;;;;;;;12.37;7.77;;;2.60;98.50;;;;;;4997905;28;20185;-75
2022/03/05 20:00:26;;;;;;;9.17;6.73;;;2.60;98.50;;;;;;4997720;28;20215;-76
2022/03/05 20:02:57;;;;;;;9.87;7.23;;;2.70;98.50;;;;;;4997487;28;20188;-78
2022/03/05 20:05:22;;;;;;;7.73;6.20;;;2.60;98.50;;;;;;4992931;28;20619;-76
2022/03/05 20:07:48;;;;;;;8.47;6.93;;;2.70;98.50;;;;;;4996648;28;20185;-75
2022/03/05 20:10:16;;;;;;;13.13;7.13;;;2.60;98.50;;;;;;4997614;28;20211;-77
2022/03/05 20:12:42;;;;;;;9.23;6.67;;;2.60;98.50;;;;;;4993777;28;20193;-76
2022/03/05 20:15:09;;;;;;;10.10;7.30;;;2.60;98.50;;;;;;4996242;28;20193;-78
2022/03/05 20:17:35;;;;;;;9.73;5.93;;;2.60;98.50;;;;;;4996853;28;20174;-76
2022/03/05 20:20:04;;;;;;;11.23;6.20;;;2.60;98.50;;;;;;4997807;28;20840;-77
2022/03/05 20:22:29;;;;;;;13.13;7.60;;;2.70;98.50;;;;;;4996101;28;20604;-77
2022/03/05 20:24:56;;;;;;;8.57;6.33;;;2.70;98.50;;;;;;4997056;28;20221;-80
2022/03/05 20:27:23;;;;;;;6.97;5.97;;;2.70;98.50;;;;;;4991350;28;20173;-77
2022/03/05 20:29:49;;;;;;;10.27;7.10;;;2.70;98.50;;;;;;4998756;28;20188;-76
2022/03/05 20:32:15;;;;;;;11.13;6.43;;;2.70;98.50;;;;;;4998090;28;20189;-75
2022/03/05 20:34:40;;;;;;;7.13;4.80;;;2.70;98.50;;;;;;4997859;28;20188;-76
2022/03/05 20:37:06;;;;;;;7.70;5.87;;;2.70;98.50;;;;;;4995201;28;20232;-76
2022/03/05 20:39:32;;;;;;;7.23;6.53;;;2.80;98.50;;;;;;4997614;28;20708;-76
2022/03/05 20:41:58;;;;;;;6.20;5.33;;;2.80;98.50;;;;;;4998016;28;20268;-76
2022/03/05 20:44:23;;;;;;;7.13;5.50;;;2.80;98.50;;;;;;4994476;28;20681;-76
2022/03/05 20:46:50;;;;;;;7.60;6.00;;;2.80;98.50;;;;;;4995568;28;20216;-80
2022/03/05 20:49:17;;;;;;;6.13;5.37;;;2.80;98.50;;;;;;4993013;28;20178;-80
2022/03/05 20:51:43;;;;;;;8.40;5.27;;;2.70;98.50;;;;;;4998468;28;20268;-81
2022/03/05 20:54:09;;;;;;;6.53;5.90;;;2.70;98.50;;;;;;4996495;28;20980;-81
2022/03/05 20:56:34;;;;;;;7.13;5.80;;;2.80;98.50;;;;;;4996916;28;20265;-81
2022/03/05 20:59:00;;;;;;;5.37;4.87;;;2.80;98.50;;;;;;4999578;28;20264;-81
2022/03/05 21:01:28;;;;;;;8.83;6.37;;;2.70;98.50;;;;;;4999332;28;20275;-81
2022/03/05 21:03:53;;;;;;;5.53;5.00;;;2.80;98.50;;;;;;4997104;28;20217;-81
2022/03/05 21:06:23;;;;;;;7.43;5.37;;;2.80;98.50;;;;;;4999159;28;21532;-81
2022/03/05 21:08:50;;;;;;;6.70;5.07;;;2.80;98.50;;;;;;4999542;28;20204;-81
2022/03/05 21:11:17;;;;;;;8.70;5.23;;;2.70;98.50;;;;;;4996242;28;20182;-81
2022/03/05 21:13:43;;;;;;;5.57;5.07;;;2.70;98.50;;;;;;4998160;28;20775;-81
2022/03/05 21:16:09;;;;;;;5.23;4.83;;;2.70;98.50;;;;;;4996546;28;20727;-80
2022/03/05 21:18:35;;;;;;;8.20;6.50;;;2.70;98.50;;;;;;4991615;28;20325;-80
2022/03/05 21:21:00;;;;;;;11.97;6.83;;;2.70;98.50;;;;;;4999848;28;21368;-80
2022/03/05 21:23:26;;;;;;;8.33;6.30;;;2.70;98.50;;;;;;5001657;28;20270;-81
2022/03/05 21:25:52;;;;;;;7.33;6.13;;;2.70;98.50;;;;;;4997813;28;20225;-81
2022/03/05 21:28:19;;;;;;;9.13;5.87;;;2.80;98.50;;;;;;4994054;28;20188;-81
2022/03/05 21:30:45;;;;;;;5.57;5.03;;;2.70;98.50;;;;;;4993944;28;20182;-80
2022/03/05 21:33:11;;;;;;;7.83;5.73;;;2.70;98.50;;;;;;4995690;28;20210;-81
2022/03/05 21:35:37;;;;;;;5.53;5.03;;;2.70;98.50;;;;;;4997665;28;20181;-81
2022/03/05 21:38:03;;;;;;;10.37;5.73;;;2.70;98.50;;;;;;4993722;28;20243;-81
2022/03/05 21:40:29;;;;;;;7.63;5.43;;;2.60;98.50;;;;;;4995504;28;20267;-81
2022/03/05 21:42:55;;;;;;;5.83;5.00;;;2.60;98.50;;;;;;4997671;28;20184;-80
2022/03/05 21:45:21;;;;;;;7.90;5.87;;;2.60;98.50;;;;;;5000278;28;20224;-79
2022/03/05 21:47:47;;;;;;;9.67;6.00;;;2.70;98.50;;;;;;4996900;28;20185;-82
2022/03/05 21:50:12;;;;;;;6.30;5.67;;;2.70;98.50;;;;;;4997725;28;20192;-79
2022/03/05 21:52:39;;;;;;;5.07;4.63;;;2.70;98.50;;;;;;4996560;28;20228;-80
2022/03/05 21:55:06;;;;;;;6.13;5.23;;;2.70;98.50;;;;;;4999439;28;20197;-80
2022/03/05 21:57:32;;;;;;;9.03;5.40;;;2.60;98.50;;;;;;4996358;28;20702;-81
2022/03/05 21:59:58;;;;;;;6.20;5.47;;;2.60;98.50;;;;;;4996396;28;20177;-80
2022/03/05 22:02:23;;;;;;;4.60;4.20;;;2.60;98.50;;;;;;4997368;28;20742;-80
2022/03/05 22:04:49;;;;;;;5.30;4.80;;;2.70;98.50;;;;;;4995089;28;20221;-80
2022/03/05 22:07:15;;;;;;;5.10;4.50;;;2.70;98.50;;;;;;4996652;28;20217;-79
2022/03/05 22:09:41;;;;;;;5.80;5.13;;;2.70;98.50;;;;;;4997663;28;20184;-79
2022/03/05 22:12:07;;;;;;;5.90;4.73;;;2.70;98.50;;;;;;4996191;28;20216;-80
2022/03/05 22:14:32;;;;;;;7.23;5.60;;;2.70;98.50;;;;;;4994036;28;20645;-79
2022/03/05 22:16:58;;;;;;;6.00;5.20;;;2.70;98.50;;;;;;4997857;28;20216;-79
2022/03/05 22:19:24;;;;;;;4.97;4.63;;;2.70;98.50;;;;;;4998797;28;20625;-78
2022/03/05 22:21:50;;;;;;;7.37;5.10;;;2.70;98.50;;;;;;5000380;28;20191;-80
2022/03/05 22:24:15;;;;;;;4.07;3.70;;;2.60;98.50;;;;;;4992751;28;20308;-79
2022/03/05 22:26:42;;;;;;;6.23;4.87;;;2.70;98.50;;;;;;4995963;28;20710;-79
2022/03/05 22:29:08;;;;;;;5.10;3.83;;;2.70;98.50;;;;;;4998984;28;20188;-79
2022/03/05 22:31:34;;;;;;;5.47;4.93;;;2.70;98.50;;;;;;4992733;28;20593;-80
2022/03/05 22:34:00;;;;;;;4.43;3.87;;;2.70;98.50;;;;;;4993326;28;20185;-80
2022/03/05 22:36:26;;;;;;;4.43;4.13;;;2.70;98.50;;;;;;4994468;28;20637;-80
2022/03/05 22:38:51;;;;;;;5.40;4.70;;;2.70;98.50;;;;;;4996995;28;20219;-80
2022/03/05 22:41:17;;;;;;;5.43;4.43;;;2.70;98.50;;;;;;4996437;28;20224;-78
2022/03/05 22:43:43;;;;;;;5.47;4.97;;;2.70;98.50;;;;;;4998967;28;20209;-78
2022/03/05 22:46:09;;;;;;;6.77;4.40;;;2.70;98.50;;;;;;4996417;28;20268;-80
2022/03/05 22:48:35;;;;;;;5.07;4.57;;;2.60;98.50;;;;;;4994130;28;20268;-80
2022/03/05 22:51:01;;;;;;;4.93;4.43;;;2.60;98.50;;;;;;4996600;28;20196;-80
2022/03/05 22:53:27;;;;;;;5.97;4.50;;;2.60;98.50;;;;;;4997624;28;20737;-79
2022/03/05 22:55:53;;;;;;;5.83;4.10;;;2.60;98.50;;;;;;4995258;28;20224;-80
2022/03/05 22:58:19;;;;;;;4.87;4.43;;;2.60;98.50;;;;;;4994134;28;20185;-80